Time;durP1;ratioP1;P1;durP2;ratioP2;P2;SDS_P1;SDS_P2;PMS_P1;PMS_P2;Temp;Humidity;BMP_temperature;BMP_pressure;BME280_temperature;BME280_humidity;BME280_pressure;Samples;Min_cycle;Max_cycle;Signal;HPM_P1;HPM_P2
2022/04/24 00:02:06;;;;;;;1.17;0.50;;;9.80;99.90;;;;;;5034985;28;20471;-85
2022/04/24 00:04:33;;;;;;;1.37;0.30;;;9.90;99.90;;;;;;5035140;28;20482;-86
2022/04/24 00:07:01;;;;;;;1.33;0.93;;;9.80;99.90;;;;;;5035177;28;20454;-86
2022/04/24 00:09:28;;;;;;;3.80;0.93;;;9.90;99.90;;;;;;5034826;28;20443;-85
2022/04/24 00:11:55;;;;;;;1.83;1.20;;;9.90;99.90;;;;;;5035176;28;20502;-85
2022/04/24 00:14:22;;;;;;;5.63;1.40;;;9.80;99.90;;;;;;5035408;28;20431;-85
2022/04/24 00:16:49;;;;;;;2.20;0.63;;;9.80;99.90;;;;;;5035117;28;20458;-85
2022/04/24 00:19:18;;;;;;;2.87;1.50;;;9.80;99.90;;;;;;5035075;28;20473;-84
2022/04/24 00:21:45;;;;;;;1.90;0.60;;;9.80;99.90;;;;;;5034992;28;20477;-85
2022/04/24 00:24:14;;;;;;;0.80;0.60;;;9.80;99.90;;;;;;5034753;28;20485;-85
2022/04/24 00:26:40;;;;;;;1.00;0.90;;;9.70;99.90;;;;;;5034646;28;20501;-86
2022/04/24 00:29:07;;;;;;;1.80;0.50;;;9.70;99.90;;;;;;5034626;28;20453;-85
2022/04/24 00:31:34;;;;;;;4.23;0.87;;;9.70;99.90;;;;;;5034702;28;20977;-85
2022/04/24 00:34:01;;;;;;;0.80;0.53;;;9.60;99.90;;;;;;5034520;28;20953;-85
2022/04/24 00:36:28;;;;;;;0.80;0.80;;;9.60;99.90;;;;;;5035317;28;20450;-85
2022/04/24 00:38:54;;;;;;;0.87;0.70;;;9.60;99.90;;;;;;5034544;28;20446;-85
2022/04/24 00:41:22;;;;;;;0.87;0.80;;;9.50;99.90;;;;;;5034783;28;20490;-85
2022/04/24 00:43:53;;;;;;;0.70;0.40;;;9.50;99.90;;;;;;5035547;28;20451;-86
2022/04/24 00:46:32;;;;;;;1.87;1.77;;;9.50;99.90;;;;;;5034521;28;20820;-86
2022/04/24 00:48:59;;;;;;;3.90;1.10;;;9.50;99.90;;;;;;5034392;28;20937;-85
2022/04/24 00:51:26;;;;;;;2.10;0.57;;;9.50;99.90;;;;;;5034161;28;20526;-85
2022/04/24 00:53:54;;;;;;;3.30;0.63;;;9.50;99.90;;;;;;5034358;28;20431;-85
2022/04/24 00:56:24;;;;;;;1.33;0.93;;;9.50;99.90;;;;;;5034500;28;20439;-86
2022/04/24 00:58:51;;;;;;;2.20;0.93;;;9.50;99.90;;;;;;5034313;28;20446;-85
2022/04/24 01:01:18;;;;;;;8.93;1.93;;;9.40;99.90;;;;;;5033795;28;20471;-86
2022/04/24 01:03:45;;;;;;;0.60;0.60;;;9.40;99.90;;;;;;5034098;28;20926;-86
2022/04/24 01:06:12;;;;;;;2.47;1.37;;;9.50;99.90;;;;;;5034211;28;20489;-86
2022/04/24 01:08:38;;;;;;;1.67;1.57;;;9.50;99.90;;;;;;5034317;28;20434;-86
2022/04/24 01:11:05;;;;;;;3.10;2.53;;;9.50;99.90;;;;;;5034162;28;20447;-86
2022/04/24 01:13:33;;;;;;;1.13;0.63;;;9.50;99.90;;;;;;5034038;28;20465;-85
2022/04/24 01:16:00;;;;;;;0.50;0.30;;;9.50;99.90;;;;;;5033965;28;20443;-86
2022/04/24 01:18:27;;;;;;;1.40;1.30;;;9.50;99.90;;;;;;5034011;28;20447;-85
2022/04/24 01:20:56;;;;;;;1.17;1.07;;;9.50;99.90;;;;;;5034115;28;20809;-85
2022/04/24 01:23:22;;;;;;;1.13;0.87;;;9.50;99.90;;;;;;5033946;28;20954;-85
2022/04/24 01:25:49;;;;;;;0.80;0.60;;;9.50;99.90;;;;;;5033984;28;20494;-85
2022/04/24 01:28:16;;;;;;;2.00;1.00;;;9.50;99.90;;;;;;5034067;28;20442;-86
2022/04/24 01:30:42;;;;;;;0.70;0.53;;;9.50;99.90;;;;;;5034172;28;20447;-85
2022/04/24 01:33:09;;;;;;;2.20;0.53;;;9.50;99.90;;;;;;5033951;28;20471;-86
2022/04/24 01:35:36;;;;;;;1.03;0.60;;;9.50;99.90;;;;;;5034183;28;20427;-86
2022/04/24 01:38:04;;;;;;;3.70;0.70;;;9.50;99.90;;;;;;5033925;28;20815;-85
2022/04/24 01:40:31;;;;;;;1.73;0.77;;;9.50;99.90;;;;;;5033478;28;20565;-85
2022/04/24 01:42:57;;;;;;;3.40;0.60;;;9.50;99.90;;;;;;5033666;28;20974;-85
2022/04/24 01:45:24;;;;;;;1.73;0.93;;;9.50;99.90;;;;;;5033521;28;21020;-86
2022/04/24 01:47:51;;;;;;;0.50;0.50;;;9.60;99.90;;;;;;5033735;28;20442;-86
2022/04/24 01:50:18;;;;;;;0.83;0.83;;;9.60;99.90;;;;;;5033639;28;20450;-85
2022/04/24 01:52:44;;;;;;;0.97;0.60;;;9.50;99.90;;;;;;5016548;28;20474;-85
2022/04/24 01:55:12;;;;;;;1.13;1.03;;;9.60;99.90;;;;;;5033626;28;20446;-86
2022/04/24 01:57:39;;;;;;;0.57;0.50;;;9.60;99.90;;;;;;5033793;28;20447;-86
2022/04/24 02:00:07;;;;;;;1.97;0.70;;;9.70;99.90;;;;;;5033794;28;20981;-85
2022/04/24 02:02:34;;;;;;;0.60;0.47;;;9.70;99.90;;;;;;5033878;28;20469;-85
2022/04/24 02:05:01;;;;;;;1.23;0.50;;;9.80;99.90;;;;;;5033611;28;21019;-85
2022/04/24 02:07:28;;;;;;;0.60;0.60;;;9.70;99.90;;;;;;5033581;28;20458;-86
2022/04/24 02:09:55;;;;;;;1.00;0.80;;;9.60;99.90;;;;;;5033859;28;20435;-86
2022/04/24 02:12:23;;;;;;;0.37;0.37;;;9.60;99.90;;;;;;5034811;28;20462;-86
2022/04/24 02:14:50;;;;;;;4.83;1.10;;;9.60;99.90;;;;;;5037766;28;20514;-87
2022/04/24 02:17:17;;;;;;;1.07;1.00;;;9.60;99.90;;;;;;5037318;28;20453;-87
2022/04/24 02:19:43;;;;;;;0.70;0.70;;;9.60;99.90;;;;;;5037328;28;20977;-87
2022/04/24 02:22:10;;;;;;;2.63;1.57;;;9.50;99.90;;;;;;5037241;28;21011;-87
2022/04/24 02:24:37;;;;;;;1.60;1.17;;;9.50;99.90;;;;;;5037544;28;20449;-87
2022/04/24 02:27:07;;;;;;;2.93;0.50;;;9.40;99.90;;;;;;5037615;28;20447;-87
2022/04/24 02:29:35;;;;;;;1.13;1.13;;;9.30;99.90;;;;;;5037216;28;20446;-87
2022/04/24 02:32:02;;;;;;;1.17;1.10;;;9.30;99.90;;;;;;5036967;28;20470;-87
2022/04/24 02:34:28;;;;;;;0.77;0.77;;;9.30;99.90;;;;;;5037126;28;20457;-87
2022/04/24 02:36:55;;;;;;;1.67;0.97;;;9.30;99.90;;;;;;5036841;28;20439;-86
2022/04/24 02:39:22;;;;;;;0.83;0.83;;;9.30;99.90;;;;;;5036794;28;20482;-85
2022/04/24 02:41:49;;;;;;;1.37;0.90;;;9.30;99.90;;;;;;5036707;28;20477;-86
2022/04/24 02:44:15;;;;;;;1.53;1.20;;;9.30;99.90;;;;;;5037637;28;20454;-86
2022/04/24 02:46:43;;;;;;;1.63;0.97;;;9.30;99.90;;;;;;5036784;28;21036;-85
2022/04/24 02:49:10;;;;;;;0.73;0.73;;;9.30;99.90;;;;;;5036718;28;20442;-85
2022/04/24 02:51:37;;;;;;;0.87;0.87;;;9.30;99.90;;;;;;5037575;28;20473;-86
2022/04/24 02:54:04;;;;;;;0.90;0.50;;;9.30;99.90;;;;;;5036724;28;20850;-86
2022/04/24 02:56:30;;;;;;;0.73;0.30;;;9.20;99.90;;;;;;5036739;28;20446;-85
2022/04/24 02:58:57;;;;;;;2.97;1.10;;;9.20;99.90;;;;;;5036543;28;20451;-86
2022/04/24 03:01:24;;;;;;;2.50;1.10;;;9.20;99.90;;;;;;5036378;28;20477;-85
2022/04/24 03:03:52;;;;;;;0.90;0.73;;;9.20;99.90;;;;;;5036440;28;20541;-86
2022/04/24 03:06:19;;;;;;;1.37;0.80;;;9.20;99.90;;;;;;5036174;28;20490;-85
2022/04/24 03:08:47;;;;;;;2.07;0.33;;;9.20;99.90;;;;;;5035989;28;20446;-85
2022/04/24 03:11:14;;;;;;;1.30;0.63;;;9.20;99.90;;;;;;5036089;28;20454;-85
2022/04/24 03:13:41;;;;;;;2.53;0.50;;;9.20;99.90;;;;;;5036963;28;20793;-85
2022/04/24 03:16:08;;;;;;;1.40;0.93;;;9.20;99.90;;;;;;5036134;28;20453;-85
2022/04/24 03:18:35;;;;;;;1.17;0.70;;;9.20;99.90;;;;;;5035913;28;20537;-85
2022/04/24 03:21:03;;;;;;;0.50;0.50;;;9.10;99.90;;;;;;5035967;28;20442;-86
2022/04/24 03:23:30;;;;;;;0.90;0.90;;;9.10;99.90;;;;;;5035745;28;20453;-85
2022/04/24 03:25:57;;;;;;;1.77;1.63;;;9.10;99.90;;;;;;5035609;28;20475;-85
2022/04/24 03:28:24;;;;;;;9.73;0.93;;;9.10;99.90;;;;;;5035919;28;20458;-85
2022/04/24 03:30:51;;;;;;;1.33;0.73;;;9.10;99.90;;;;;;5035344;28;20938;-85
2022/04/24 03:33:17;;;;;;;0.80;0.60;;;9.10;99.90;;;;;;5035663;28;20465;-85
2022/04/24 03:35:44;;;;;;;1.43;1.33;;;9.10;99.90;;;;;;5035488;28;20938;-86
2022/04/24 03:38:12;;;;;;;0.77;0.60;;;9.10;99.90;;;;;;5035671;28;20926;-86
2022/04/24 03:40:39;;;;;;;4.60;0.83;;;9.20;99.90;;;;;;5035157;28;20557;-85
2022/04/24 03:43:06;;;;;;;1.17;1.17;;;9.20;99.90;;;;;;5035606;28;20470;-87
2022/04/24 03:45:33;;;;;;;3.67;0.60;;;9.20;99.90;;;;;;5035324;28;20487;-85
2022/04/24 03:48:00;;;;;;;0.87;0.87;;;9.20;99.90;;;;;;5035140;28;20462;-85
2022/04/24 03:50:27;;;;;;;2.60;1.33;;;9.10;99.90;;;;;;5034831;28;20512;-85
2022/04/24 03:52:53;;;;;;;2.53;1.43;;;9.10;99.90;;;;;;5034934;28;20980;-85
2022/04/24 03:55:21;;;;;;;2.60;1.07;;;9.10;99.90;;;;;;5035787;28;20450;-85
2022/04/24 03:57:48;;;;;;;1.27;1.27;;;9.10;99.90;;;;;;5035109;28;20446;-85
2022/04/24 04:00:16;;;;;;;2.47;2.27;;;9.10;99.90;;;;;;5035120;28;20457;-85
2022/04/24 04:02:44;;;;;;;1.43;0.70;;;9.10;99.90;;;;;;5034904;28;20482;-85
2022/04/24 04:05:11;;;;;;;2.17;2.07;;;9.10;99.90;;;;;;5034555;28;20477;-85
2022/04/24 04:07:38;;;;;;;0.67;0.57;;;9.10;99.90;;;;;;5034632;28;20439;-85
2022/04/24 04:10:06;;;;;;;0.93;0.63;;;9.00;99.90;;;;;;5034984;28;20446;-85
2022/04/24 04:12:34;;;;;;;0.90;0.50;;;9.00;99.90;;;;;;5034749;28;20545;-85
2022/04/24 04:15:01;;;;;;;0.50;0.47;;;9.00;99.90;;;;;;5034727;28;20815;-85
2022/04/24 04:17:28;;;;;;;0.50;0.40;;;8.90;99.90;;;;;;5034694;28;20447;-83
2022/04/24 04:19:55;;;;;;;1.73;0.60;;;8.80;99.90;;;;;;5034381;28;20454;-84
2022/04/24 04:22:22;;;;;;;0.90;0.90;;;8.70;99.90;;;;;;5034376;28;20466;-85
2022/04/24 04:24:48;;;;;;;0.30;0.30;;;8.60;99.90;;;;;;5034234;28;20965;-85
2022/04/24 04:27:15;;;;;;;0.40;0.30;;;8.60;99.90;;;;;;5034366;28;20486;-84
2022/04/24 04:29:43;;;;;;;0.30;0.20;;;8.50;99.90;;;;;;5034418;28;20462;-86
2022/04/24 04:32:10;;;;;;;0.30;0.30;;;8.30;99.90;;;;;;5034438;28;20475;-84
2022/04/24 04:34:37;;;;;;;0.30;0.30;;;8.20;99.90;;;;;;5033796;28;20450;-85
2022/04/24 04:37:04;;;;;;;0.47;0.40;;;8.20;99.90;;;;;;5034048;28;20965;-85
2022/04/24 04:39:31;;;;;;;0.30;0.20;;;8.20;99.90;;;;;;5033936;28;20479;-86
2022/04/24 04:41:58;;;;;;;0.30;0.20;;;8.10;99.90;;;;;;5033998;28;20970;-85
2022/04/24 04:44:24;;;;;;;0.30;0.20;;;8.00;99.90;;;;;;5034094;28;20442;-85
2022/04/24 04:46:52;;;;;;;0.30;0.20;;;7.80;99.90;;;;;;5035325;28;20489;-85
2022/04/24 04:49:19;;;;;;;0.30;0.30;;;7.70;99.90;;;;;;5033739;28;20431;-86
2022/04/24 04:51:46;;;;;;;0.30;0.20;;;7.70;99.90;;;;;;5033916;28;20471;-85
2022/04/24 04:54:13;;;;;;;0.30;0.20;;;7.60;99.90;;;;;;5033703;28;20461;-83
2022/04/24 04:56:40;;;;;;;0.30;0.20;;;7.60;99.90;;;;;;5036989;28;20446;-86
2022/04/24 04:59:07;;;;;;;0.30;0.20;;;7.60;99.90;;;;;;5034041;28;20528;-85
2022/04/24 05:01:33;;;;;;;0.30;0.20;;;7.60;99.90;;;;;;5033934;28;20471;-85
2022/04/24 05:04:01;;;;;;;0.30;0.30;;;7.60;99.90;;;;;;5033794;28;20451;-86
2022/04/24 05:06:28;;;;;;;0.30;0.30;;;7.50;99.90;;;;;;5033744;28;20486;-85
2022/04/24 05:08:55;;;;;;;0.30;0.20;;;7.40;99.90;;;;;;5033658;28;20443;-86
2022/04/24 05:11:22;;;;;;;0.30;0.20;;;7.50;99.90;;;;;;5033689;28;20967;-86
2022/04/24 05:13:48;;;;;;;0.30;0.20;;;7.40;99.90;;;;;;5033751;28;20805;-86
2022/04/24 05:16:15;;;;;;;0.30;0.20;;;7.30;99.90;;;;;;5033868;28;20454;-86
2022/04/24 05:18:42;;;;;;;0.30;0.20;;;7.30;99.90;;;;;;5033660;28;20454;-85
2022/04/24 05:21:10;;;;;;;0.30;0.20;;;7.30;99.90;;;;;;5033701;28;20435;-85
2022/04/24 05:23:37;;;;;;;0.30;0.20;;;7.20;99.90;;;;;;5033176;28;20947;-85
2022/04/24 05:26:04;;;;;;;0.30;0.20;;;7.10;99.90;;;;;;5033204;28;20978;-85
2022/04/24 05:28:30;;;;;;;0.30;0.20;;;7.10;99.90;;;;;;5033499;28;20461;-86
2022/04/24 05:30:57;;;;;;;0.30;0.30;;;7.10;99.90;;;;;;5033205;28;20830;-86
2022/04/24 05:33:24;;;;;;;0.30;0.30;;;7.00;99.90;;;;;;5033490;28;20439;-86
2022/04/24 05:35:51;;;;;;;0.30;0.20;;;6.90;99.90;;;;;;5033494;28;20453;-85
2022/04/24 05:38:19;;;;;;;0.30;0.20;;;6.90;99.90;;;;;;5033293;28;20451;-87
2022/04/24 05:40:45;;;;;;;0.30;0.20;;;6.90;99.90;;;;;;5032893;28;20483;-86
2022/04/24 05:43:12;;;;;;;0.30;0.20;;;7.00;99.90;;;;;;5032992;28;20470;-88
2022/04/24 05:45:39;;;;;;;0.30;0.20;;;7.00;99.90;;;;;;5033656;28;20950;-86
2022/04/24 05:48:06;;;;;;;0.30;0.20;;;6.90;99.90;;;;;;5037099;28;20431;-86
2022/04/24 05:50:34;;;;;;;0.30;0.20;;;7.00;99.90;;;;;;5037557;28;20450;-86
2022/04/24 05:53:02;;;;;;;0.30;0.20;;;7.00;99.90;;;;;;5036873;28;21055;-85
2022/04/24 05:55:30;;;;;;;0.60;0.30;;;7.00;99.90;;;;;;5037452;28;20481;-86
2022/04/24 05:57:57;;;;;;;0.30;0.20;;;7.00;99.90;;;;;;5037001;28;20922;-85
2022/04/24 06:00:23;;;;;;;0.30;0.20;;;7.00;99.90;;;;;;5037211;28;20435;-86
2022/04/24 06:02:51;;;;;;;0.30;0.20;;;7.00;99.90;;;;;;5037268;28;20479;-85
2022/04/24 06:05:17;;;;;;;0.30;0.30;;;7.10;99.90;;;;;;5037066;28;20458;-86
2022/04/24 06:07:44;;;;;;;0.30;0.27;;;7.10;99.90;;;;;;5036763;28;20478;-86
2022/04/24 06:10:12;;;;;;;0.30;0.20;;;7.10;99.90;;;;;;5036619;28;21013;-86
2022/04/24 06:12:48;;;;;;;0.30;0.20;;;7.10;99.90;;;;;;5036801;28;20494;-86
2022/04/24 06:15:16;;;;;;;0.30;0.30;;;7.10;99.90;;;;;;5036685;28;20437;-86
2022/04/24 06:17:43;;;;;;;0.30;0.20;;;7.10;99.90;;;;;;5036556;28;20442;-86
2022/04/24 06:20:11;;;;;;;0.30;0.30;;;7.10;99.90;;;;;;5036533;28;20899;-85
2022/04/24 06:22:49;;;;;;;0.30;0.20;;;7.00;99.90;;;;;;5036344;28;20827;-86
2022/04/24 06:25:17;;;;;;;0.30;0.20;;;7.00;99.90;;;;;;5036730;28;20430;-86
2022/04/24 06:27:44;;;;;;;0.30;0.20;;;7.00;99.90;;;;;;5040183;28;20486;-86
2022/04/24 06:30:12;;;;;;;0.30;0.30;;;7.10;99.90;;;;;;5036701;28;20922;-86
2022/04/24 06:32:39;;;;;;;0.30;0.20;;;7.10;99.90;;;;;;5036508;28;20471;-86
2022/04/24 06:35:09;;;;;;;0.30;0.20;;;7.10;99.90;;;;;;5036365;28;20533;-86
2022/04/24 06:37:36;;;;;;;0.30;0.20;;;7.20;99.90;;;;;;5036464;28;20439;-86
2022/04/24 07:20:40;;;;;;;0.30;0.30;;;7.20;99.90;;;;;;6155596;22;21100;-75
2022/04/24 07:23:07;;;;;;;0.30;0.20;;;7.30;99.90;;;;;;5034267;28;21021;-76
2022/04/24 07:25:37;;;;;;;0.30;0.20;;;7.20;99.90;;;;;;5034998;28;20438;-77
2022/04/24 07:28:04;;;;;;;0.30;0.20;;;7.30;99.90;;;;;;5034910;28;20473;-77
2022/04/24 07:30:31;;;;;;;0.30;0.20;;;7.30;99.90;;;;;;5035290;28;20805;-77
2022/04/24 07:32:58;;;;;;;0.30;0.20;;;7.30;99.90;;;;;;5035111;28;20469;-77
2022/04/24 07:35:27;;;;;;;0.30;0.20;;;7.20;99.90;;;;;;5034764;28;20447;-77
2022/04/24 07:56:02;;;;;;;0.30;0.20;;;7.50;99.90;;;;;;5873018;22;20486;-81
2022/04/24 07:58:29;;;;;;;0.30;0.30;;;7.60;99.90;;;;;;5034448;28;20798;-81
2022/04/24 08:00:56;;;;;;;0.30;0.30;;;7.50;99.90;;;;;;5034612;28;20446;-81
2022/04/24 08:03:23;;;;;;;0.30;0.20;;;7.60;99.90;;;;;;5034512;28;20470;-82
2022/04/24 08:05:51;;;;;;;0.30;0.30;;;7.60;99.90;;;;;;5034549;28;20446;-81
2022/04/24 08:08:19;;;;;;;0.30;0.30;;;7.70;99.90;;;;;;5034217;28;20922;-81
2022/04/24 08:10:48;;;;;;;0.30;0.23;;;7.80;99.90;;;;;;5033534;28;20473;-81
2022/04/24 08:13:16;;;;;;;0.30;0.20;;;7.80;99.90;;;;;;5034348;28;20474;-82
2022/04/24 08:15:44;;;;;;;0.30;0.20;;;7.80;99.90;;;;;;5034027;28;20431;-81
2022/04/24 08:18:11;;;;;;;0.30;0.20;;;7.80;99.90;;;;;;5033982;28;20489;-79
2022/04/24 08:20:39;;;;;;;0.30;0.30;;;7.80;99.90;;;;;;5035031;28;20446;-81
2022/04/24 08:23:06;;;;;;;0.30;0.20;;;7.80;99.90;;;;;;5034153;28;20474;-79
2022/04/24 08:25:35;;;;;;;0.30;0.20;;;7.90;99.90;;;;;;5033830;28;20450;-80
2022/04/24 08:28:04;;;;;;;0.30;0.20;;;7.90;99.90;;;;;;5033824;28;20857;-81
2022/04/24 08:30:34;;;;;;;0.30;0.20;;;7.90;99.90;;;;;;5034076;28;20813;-80
2022/04/24 08:33:02;;;;;;;0.40;0.30;;;7.90;99.90;;;;;;5033946;28;20475;-80
2022/04/24 10:30:06;;;;;;;0.30;0.20;;;8.60;99.90;;;;;;5111885;23;20500;-74
2022/04/24 10:32:33;;;;;;;0.30;0.20;;;8.60;99.90;;;;;;5032699;28;20466;-74
2022/04/24 10:34:59;;;;;;;0.30;0.30;;;8.60;99.90;;;;;;5036212;28;20449;-74
2022/04/24 10:37:28;;;;;;;0.40;0.30;;;8.60;99.90;;;;;;5036207;28;20422;-74
2022/04/24 10:39:57;;;;;;;0.30;0.20;;;8.70;99.90;;;;;;5036117;28;20811;-74
2022/04/24 10:42:31;;;;;;;0.30;0.30;;;8.70;99.90;;;;;;5036049;28;20508;-74
2022/04/24 10:45:07;;;;;;;0.30;0.20;;;8.70;99.90;;;;;;5036088;28;20431;-74
2022/04/24 10:47:42;;;;;;;0.30;0.20;;;8.70;99.90;;;;;;5035917;28;20477;-74
2022/04/24 10:50:10;;;;;;;0.87;0.50;;;8.70;99.90;;;;;;5035939;28;20482;-74
2022/04/24 10:52:41;;;;;;;0.30;0.20;;;8.80;99.90;;;;;;5035784;28;20477;-74
2022/04/24 10:55:09;;;;;;;0.30;0.20;;;8.70;99.90;;;;;;5035898;28;20454;-74
2022/04/24 10:57:42;;;;;;;0.30;0.20;;;8.70;99.90;;;;;;5035848;28;20423;-74
2022/04/24 11:00:19;;;;;;;0.30;0.20;;;8.70;99.90;;;;;;5035570;28;20434;-74
2022/04/24 11:02:47;;;;;;;0.30;0.30;;;8.70;99.90;;;;;;5035805;28;20466;-74
2022/04/24 11:05:20;;;;;;;0.30;0.20;;;8.80;99.90;;;;;;5035377;28;20454;-74
2022/04/24 11:07:47;;;;;;;0.30;0.30;;;8.80;99.90;;;;;;5035565;28;20466;-74
2022/04/24 11:10:14;;;;;;;0.30;0.30;;;8.80;99.90;;;;;;5035617;28;20479;-75
2022/04/24 11:12:42;;;;;;;0.30;0.30;;;8.90;99.90;;;;;;5035450;28;20466;-74
2022/04/24 11:15:11;;;;;;;0.30;0.20;;;8.90;99.90;;;;;;5035471;28;20438;-74
2022/04/24 11:17:40;;;;;;;0.30;0.20;;;8.90;99.90;;;;;;5035477;28;20431;-74
2022/04/24 11:20:09;;;;;;;0.30;0.30;;;9.00;99.90;;;;;;5035436;28;20431;-75
2022/04/24 11:22:45;;;;;;;0.30;0.30;;;9.10;99.90;;;;;;5036069;28;20562;-74
2022/04/24 11:25:14;;;;;;;0.30;0.20;;;9.10;99.90;;;;;;5035390;28;20454;-74
2022/04/24 11:27:42;;;;;;;0.30;0.20;;;9.20;99.90;;;;;;5035265;28;20466;-74
2022/04/24 11:30:15;;;;;;;0.40;0.30;;;9.20;99.90;;;;;;5034797;28;20505;-74
2022/04/24 11:32:57;;;;;;;0.40;0.30;;;9.20;99.90;;;;;;5035102;28;20471;-73
2022/04/24 11:35:25;;;;;;;0.50;0.50;;;9.20;99.90;;;;;;5034874;28;20438;-74
2022/04/24 11:37:53;;;;;;;0.30;0.30;;;9.20;99.90;;;;;;5035093;28;20431;-74
2022/04/24 11:40:20;;;;;;;0.30;0.20;;;9.30;99.90;;;;;;5035041;28;20450;-74
2022/04/24 11:42:47;;;;;;;0.30;0.30;;;9.40;99.90;;;;;;5034902;28;20475;-74
2022/04/24 11:50:51;;;;;;;0.30;0.20;;;9.40;99.90;;;;;;5034979;28;20577;-74
2022/04/24 11:53:19;;;;;;;0.40;0.30;;;9.40;99.90;;;;;;5034689;28;20466;-74
2022/04/24 11:56:04;;;;;;;0.30;0.30;;;9.50;99.90;;;;;;5034405;28;20451;-74
2022/04/24 11:58:35;;;;;;;0.30;0.20;;;9.40;99.90;;;;;;5034412;28;20798;-74
2022/04/24 12:01:04;;;;;;;0.40;0.40;;;9.40;99.90;;;;;;5034332;28;20784;-74
2022/04/24 12:03:33;;;;;;;1.43;1.33;;;9.50;99.90;;;;;;5034544;28;20465;-74
2022/04/24 12:06:01;;;;;;;0.30;0.30;;;9.50;99.90;;;;;;5034195;28;20958;-74
2022/04/24 12:08:39;;;;;;;0.30;0.20;;;9.50;99.90;;;;;;5034471;28;20558;-74
2022/04/24 12:11:06;;;;;;;0.30;0.30;;;9.60;99.90;;;;;;5034361;28;20430;-74
2022/04/24 12:13:33;;;;;;;0.30;0.30;;;9.50;99.90;;;;;;5034091;28;20802;-74
2022/04/24 12:16:00;;;;;;;0.30;0.30;;;9.50;99.90;;;;;;5033643;28;20454;-74
2022/04/24 12:18:28;;;;;;;0.30;0.20;;;9.60;99.90;;;;;;5033917;28;20434;-74
2022/04/24 12:20:56;;;;;;;0.30;0.20;;;9.60;99.90;;;;;;5034315;28;20437;-74
2022/04/24 12:23:23;;;;;;;0.30;0.30;;;9.50;99.90;;;;;;5033983;28;20458;-74
2022/04/24 12:25:51;;;;;;;0.30;0.30;;;9.60;99.90;;;;;;5034779;28;20518;-74
2022/04/24 12:28:30;;;;;;;0.30;0.30;;;9.60;99.90;;;;;;5033472;28;20832;-74
2022/04/24 12:30:58;;;;;;;0.30;0.20;;;9.60;99.90;;;;;;5034109;28;20439;-74
2022/04/24 12:33:25;;;;;;;0.40;0.30;;;9.70;99.90;;;;;;5033740;28;20446;-74
2022/04/24 12:35:51;;;;;;;0.40;0.40;;;9.80;99.90;;;;;;5033666;28;20950;-74
2022/04/24 12:38:22;;;;;;;0.30;0.20;;;9.90;99.90;;;;;;5033929;28;20427;-74
2022/04/24 12:40:57;;;;;;;0.30;0.30;;;10.00;99.90;;;;;;5033657;28;20445;-74
2022/04/24 12:43:26;;;;;;;0.30;0.30;;;10.00;99.90;;;;;;5034050;28;20510;-74
2022/04/24 12:45:53;;;;;;;0.30;0.20;;;10.10;99.90;;;;;;5033507;28;20445;-74
2022/04/24 12:48:20;;;;;;;0.30;0.20;;;10.10;99.90;;;;;;5033693;28;20479;-74
2022/04/24 12:50:50;;;;;;;0.30;0.30;;;10.00;99.90;;;;;;5033672;28;21027;-74
2022/04/24 12:53:17;;;;;;;0.30;0.20;;;10.00;99.90;;;;;;5033572;28;20474;-74
2022/04/24 12:55:45;;;;;;;0.30;0.20;;;9.90;99.90;;;;;;5033141;28;20434;-74
2022/04/24 12:58:14;;;;;;;0.30;0.30;;;9.90;99.90;;;;;;5033278;28;20433;-74
2022/04/24 13:00:42;;;;;;;0.53;0.30;;;9.90;99.90;;;;;;5033251;28;20455;-74
2022/04/24 13:03:09;;;;;;;0.30;0.20;;;9.80;99.90;;;;;;5033097;28;20839;-74
2022/04/24 13:05:37;;;;;;;0.30;0.20;;;9.80;99.90;;;;;;5033357;28;20489;-74
2022/04/24 13:08:04;;;;;;;0.30;0.20;;;9.70;99.90;;;;;;5033315;28;20569;-74
2022/04/24 13:10:31;;;;;;;0.30;0.20;;;9.60;99.90;;;;;;5033370;28;20453;-74
2022/04/24 13:13:01;;;;;;;0.30;0.30;;;9.50;99.90;;;;;;5033276;28;20466;-75
2022/04/24 13:15:30;;;;;;;0.40;0.30;;;9.50;99.90;;;;;;5033383;28;20537;-74
2022/04/24 13:18:08;;;;;;;0.30;0.30;;;9.50;99.90;;;;;;5033161;28;20873;-76
2022/04/24 13:20:38;;;;;;;0.30;0.30;;;9.40;99.90;;;;;;5033342;28;20505;-76
2022/04/24 13:23:05;;;;;;;0.30;0.30;;;9.30;99.90;;;;;;5033035;28;20509;-76
2022/04/24 13:25:33;;;;;;;0.40;0.40;;;9.30;99.90;;;;;;5033181;28;20446;-76
2022/04/24 13:28:01;;;;;;;0.30;0.20;;;9.30;99.90;;;;;;5032893;28;20486;-76
2022/04/24 13:30:28;;;;;;;0.30;0.30;;;9.30;99.90;;;;;;5033148;28;20891;-76
2022/04/24 13:32:54;;;;;;;0.30;0.27;;;9.30;99.90;;;;;;5033043;28;20478;-76
2022/04/24 13:35:22;;;;;;;0.30;0.30;;;9.30;99.90;;;;;;5032785;28;20449;-76
2022/04/24 13:40:33;;;;;;;0.30;0.30;;;9.40;99.90;;;;;;5033198;28;20810;-76
2022/04/24 13:43:02;;;;;;;0.33;0.33;;;9.40;99.90;;;;;;5032968;28;20470;-76
2022/04/24 13:45:30;;;;;;;0.30;0.20;;;9.40;99.90;;;;;;5033047;28;20838;-76
2022/04/24 13:47:56;;;;;;;0.30;0.20;;;9.40;99.90;;;;;;5032900;28;20521;-76
2022/04/24 13:50:23;;;;;;;0.30;0.20;;;9.40;99.90;;;;;;5032930;28;20447;-76
2022/04/24 13:52:51;;;;;;;0.30;0.20;;;9.50;99.90;;;;;;5032851;28;20482;-76
2022/04/24 13:55:18;;;;;;;0.30;0.27;;;9.40;99.90;;;;;;5032623;28;20961;-77
2022/04/24 13:57:45;;;;;;;0.30;0.20;;;9.50;99.90;;;;;;5032899;28;20466;-76
2022/04/24 14:00:14;;;;;;;0.30;0.30;;;9.50;99.90;;;;;;5032534;28;20958;-76
2022/04/24 14:02:41;;;;;;;0.30;0.20;;;9.50;99.90;;;;;;5032803;28;20470;-76
2022/04/24 14:05:09;;;;;;;0.30;0.30;;;9.40;99.90;;;;;;5032888;28;20470;-76
2022/04/24 14:07:36;;;;;;;0.30;0.30;;;9.50;99.90;;;;;;5033020;28;20537;-76
2022/04/24 14:10:03;;;;;;;0.30;0.30;;;9.50;99.90;;;;;;5036708;28;20442;-76
2022/04/24 14:12:30;;;;;;;0.30;0.30;;;9.50;99.90;;;;;;5036600;28;20466;-76
2022/04/24 14:14:56;;;;;;;0.30;0.20;;;9.50;99.90;;;;;;5036652;28;20458;-76
2022/04/24 14:17:24;;;;;;;0.30;0.30;;;9.40;99.90;;;;;;5036600;28;20435;-76
2022/04/24 14:19:51;;;;;;;0.30;0.30;;;9.40;99.90;;;;;;5036545;28;20443;-76
2022/04/24 14:22:18;;;;;;;0.30;0.20;;;9.40;99.90;;;;;;5036406;28;20474;-76
2022/04/24 14:24:45;;;;;;;0.30;0.30;;;9.40;99.90;;;;;;5036379;28;20446;-76
2022/04/24 14:27:13;;;;;;;0.30;0.30;;;9.40;99.90;;;;;;5036303;28;20836;-77
2022/04/24 14:29:40;;;;;;;0.30;0.30;;;9.30;99.90;;;;;;5035870;28;20490;-76
2022/04/24 14:32:07;;;;;;;0.30;0.20;;;9.30;99.90;;;;;;5036271;28;20470;-76
2022/04/24 14:34:35;;;;;;;0.33;0.30;;;9.30;99.90;;;;;;5036279;28;20500;-77
2022/04/24 14:37:02;;;;;;;0.30;0.20;;;9.30;99.90;;;;;;5036223;28;20815;-76
2022/04/24 14:39:29;;;;;;;0.30;0.20;;;9.30;99.90;;;;;;5036169;28;20446;-76
2022/04/24 14:41:56;;;;;;;0.30;0.20;;;9.30;99.90;;;;;;5035767;28;20989;-77
2022/04/24 14:44:23;;;;;;;0.30;0.30;;;9.30;99.90;;;;;;5036117;28;20545;-78
2022/04/24 14:57:52;;;;;;;0.30;0.20;;;9.20;99.90;;;;;;5010055;28;20485;-77
2022/04/24 15:00:19;;;;;;;0.30;0.20;;;9.20;99.90;;;;;;5035777;28;20447;-77
2022/04/24 15:02:46;;;;;;;0.30;0.20;;;9.10;99.90;;;;;;5035610;28;20474;-77
2022/04/24 15:05:14;;;;;;;0.30;0.30;;;9.10;99.90;;;;;;5035434;28;20450;-76
2022/04/24 15:07:41;;;;;;;0.30;0.30;;;9.10;99.90;;;;;;5035594;28;20449;-77
2022/04/24 15:10:08;;;;;;;0.30;0.20;;;9.10;99.90;;;;;;5035662;28;20446;-77
2022/04/24 15:12:35;;;;;;;0.30;0.20;;;9.00;99.90;;;;;;5035213;28;20545;-76
2022/04/24 15:15:01;;;;;;;0.40;0.30;;;9.00;99.90;;;;;;5035543;28;20442;-78
2022/04/24 15:17:29;;;;;;;0.30;0.20;;;9.00;99.90;;;;;;5035124;28;20450;-77
2022/04/24 15:19:56;;;;;;;0.30;0.27;;;9.10;99.90;;;;;;5034982;28;20478;-77
2022/04/24 15:22:25;;;;;;;0.30;0.20;;;9.10;99.90;;;;;;5034991;28;21000;-75
2022/04/24 15:24:51;;;;;;;0.30;0.20;;;9.10;99.90;;;;;;5035380;28;20467;-75
2022/04/24 15:27:18;;;;;;;0.30;0.20;;;9.10;99.90;;;;;;5035271;28;20431;-76
2022/04/24 15:29:45;;;;;;;0.30;0.30;;;9.10;99.90;;;;;;5034829;28;20502;-75
2022/04/24 15:32:12;;;;;;;0.30;0.30;;;9.10;99.90;;;;;;5035098;28;20474;-75
2022/04/24 15:34:41;;;;;;;0.30;0.30;;;9.00;99.90;;;;;;5034885;28;20816;-75
2022/04/24 15:37:08;;;;;;;0.30;0.30;;;9.10;99.90;;;;;;5035078;28;20505;-75
2022/04/24 15:39:36;;;;;;;0.30;0.20;;;9.10;99.90;;;;;;5035004;28;20457;-75
2022/04/24 15:42:07;;;;;;;0.30;0.30;;;9.10;99.90;;;;;;5034925;28;20478;-75
2022/04/24 15:45:10;;;;;;;0.30;0.20;;;9.10;99.90;;;;;;5035008;28;20953;-75
2022/04/24 15:47:22;;;;;;;0.30;0.20;;;9.10;99.90;;;;;;5034559;28;20537;-74
2022/04/24 15:49:49;;;;;;;0.30;0.30;;;9.10;99.90;;;;;;5034895;28;20473;-78
2022/04/24 15:52:16;;;;;;;0.30;0.20;;;9.10;99.90;;;;;;5034363;28;20878;-78
2022/04/24 15:54:44;;;;;;;0.43;0.37;;;9.10;99.90;;;;;;5034779;28;20790;-77
2022/04/24 15:57:11;;;;;;;0.30;0.20;;;9.10;99.90;;;;;;5034405;28;20442;-77
2022/04/24 15:59:38;;;;;;;0.30;0.30;;;9.10;99.90;;;;;;5034661;28;20446;-77
2022/04/24 16:02:10;;;;;;;0.30;0.20;;;9.10;99.90;;;;;;5034544;28;20470;-77
2022/04/24 16:04:36;;;;;;;0.30;0.30;;;9.10;99.90;;;;;;5034709;28;20439;-77
2022/04/24 16:59:46;;;;;;;0.30;0.20;;;9.30;99.90;;;;;;5353590;22;20482;-75
2022/04/24 17:02:13;;;;;;;0.30;0.20;;;9.20;99.90;;;;;;5033468;28;20469;-75
2022/04/24 17:04:41;;;;;;;0.30;0.20;;;9.20;99.90;;;;;;5033470;28;20536;-75
2022/04/24 17:07:07;;;;;;;0.30;0.20;;;9.20;99.90;;;;;;5033503;28;20496;-75